createdAt,value
2019-02-03T00:00:41.378Z,926.91
2019-02-03T00:01:49.428Z,926.96
2019-02-03T00:02:57.588Z,926.95
2019-02-03T00:04:05.554Z,926.96
2019-02-03T00:05:13.597Z,927.00
2019-02-03T00:06:21.658Z,926.94
2019-02-03T00:07:29.688Z,927.01
2019-02-03T00:08:37.855Z,927.02
2019-02-03T00:09:45.811Z,927.03
2019-02-03T00:10:53.947Z,927.05
2019-02-03T00:12:01.914Z,927.02
2019-02-03T00:13:10.075Z,927.10
2019-02-03T00:14:18.039Z,927.04
2019-02-03T00:15:26.083Z,927.07
2019-02-03T00:16:34.115Z,927.07
2019-02-03T00:17:42.191Z,927.06
2019-02-03T00:18:50.352Z,927.05
2019-02-03T00:19:58.312Z,927.03
2019-02-03T00:21:06.353Z,927.04
2019-02-03T00:22:14.396Z,926.99
2019-02-03T00:23:22.568Z,927.04
2019-02-03T00:24:30.534Z,927.05
2019-02-03T00:25:38.580Z,927.03
2019-02-03T00:26:46.654Z,927.06
2019-02-03T00:27:54.682Z,927.03
2019-02-03T00:29:02.842Z,927.06
2019-02-03T00:30:10.809Z,927.02
2019-02-03T00:31:18.852Z,927.05
2019-02-03T00:32:26.902Z,927.04
2019-02-03T00:33:35.051Z,927.09
2019-02-03T00:34:43.053Z,927.06
2019-02-03T00:35:51.072Z,927.08
2019-02-03T00:36:59.225Z,927.01
2019-02-03T00:38:07.187Z,927.02
2019-02-03T00:39:15.366Z,927.06
2019-02-03T00:40:23.321Z,927.06
2019-02-03T00:41:31.418Z,927.05
2019-02-03T00:42:39.400Z,927.05
2019-02-03T00:43:47.552Z,927.01
2019-02-03T00:44:55.496Z,927.00
2019-02-03T00:46:03.559Z,927.01
2019-02-03T00:47:11.621Z,926.99
2019-02-03T00:48:19.680Z,926.98
2019-02-03T00:49:27.780Z,927.07
2019-02-03T00:50:35.791Z,926.98
2019-02-03T00:51:43.912Z,926.95
2019-02-03T00:52:51.884Z,926.96
2019-02-03T00:54:00.039Z,926.98
2019-02-03T00:55:07.994Z,926.96
2019-02-03T00:56:16.073Z,926.95
2019-02-03T00:57:24.076Z,926.97
2019-02-03T00:58:32.142Z,926.96
2019-02-03T00:59:40.261Z,926.97
2019-02-03T01:00:48.263Z,927.00
2019-02-03T01:01:56.326Z,926.98
2019-02-03T01:03:04.351Z,926.95
2019-02-03T01:04:12.466Z,926.88
2019-02-03T01:05:20.468Z,926.96
2019-02-03T01:06:28.520Z,926.96
2019-02-03T01:07:36.656Z,926.96
2019-02-03T01:08:44.633Z,926.97
2019-02-03T01:09:52.804Z,927.02
2019-02-03T01:11:00.754Z,927.06
2019-02-03T01:12:08.819Z,927.06
2019-02-03T01:13:16.871Z,927.05
2019-02-03T01:14:25.050Z,927.05
2019-02-03T01:15:32.975Z,926.97
2019-02-03T01:16:41.034Z,926.96
2019-02-03T01:17:49.092Z,926.91
2019-02-03T01:18:57.143Z,926.88
2019-02-03T01:20:05.200Z,926.81
2019-02-03T01:21:13.248Z,926.81
2019-02-03T01:22:21.301Z,926.71
2019-02-03T01:23:29.347Z,926.65
2019-02-03T01:24:37.479Z,926.57
2019-02-03T01:25:45.468Z,926.52
2019-02-03T01:26:53.514Z,926.49
2019-02-03T01:28:01.609Z,926.43
2019-02-03T01:29:09.611Z,926.35
2019-02-03T01:30:17.678Z,926.41
2019-02-03T01:31:25.740Z,926.45
2019-02-03T01:32:33.784Z,926.49
2019-02-03T01:33:41.825Z,926.58
2019-02-03T01:34:49.988Z,926.67
2019-02-03T01:35:57.968Z,926.75
2019-02-03T01:37:06.017Z,926.86
2019-02-03T01:38:14.080Z,926.92
2019-02-03T01:39:22.120Z,926.95
2019-02-03T01:40:30.189Z,927.01
2019-02-03T01:41:38.250Z,927.06
2019-02-03T01:42:46.301Z,927.13
2019-02-03T01:43:54.291Z,927.23
2019-02-03T01:45:02.470Z,927.31
2019-02-03T01:46:10.438Z,927.40
2019-02-03T01:47:18.505Z,927.43
2019-02-03T01:48:26.579Z,927.53
2019-02-03T01:49:34.579Z,927.55
2019-02-03T01:50:42.664Z,927.60
2019-02-03T01:51:50.706Z,927.63
2019-02-03T01:52:58.855Z,927.71
2019-02-03T01:54:06.808Z,927.71
2019-02-03T01:55:14.988Z,927.74
2019-02-03T01:56:22.918Z,927.79
2019-02-03T01:57:30.967Z,927.82
2019-02-03T01:58:39.023Z,927.87
2019-02-03T01:59:47.188Z,927.91
2019-02-03T02:00:55.144Z,927.95
2019-02-03T02:02:03.192Z,928.00
2019-02-03T02:03:11.262Z,928.02
2019-02-03T02:04:19.320Z,928.10
2019-02-03T02:05:27.453Z,928.16
2019-02-03T02:06:35.406Z,928.15
2019-02-03T02:07:51.062Z,928.21
2019-02-03T02:08:51.518Z,928.25
2019-02-03T02:09:59.677Z,928.31
2019-02-03T02:11:07.630Z,928.35
2019-02-03T02:12:15.674Z,928.38
2019-02-03T02:13:23.747Z,928.43
2019-02-03T02:14:31.785Z,928.44
2019-02-03T02:15:39.945Z,928.47
2019-02-03T02:16:47.889Z,928.58
2019-02-03T02:17:56.038Z,928.60
2019-02-03T02:19:03.976Z,928.64
2019-02-03T02:20:12.154Z,928.65
2019-02-03T02:21:20.110Z,928.63
2019-02-03T02:22:28.258Z,928.63
2019-02-03T02:23:36.227Z,928.58
2019-02-03T02:24:44.242Z,928.60
2019-02-03T02:25:52.416Z,928.57
2019-02-03T02:27:00.437Z,928.60
2019-02-03T02:28:08.434Z,928.55
2019-02-03T02:29:16.505Z,928.52
2019-02-03T02:30:24.818Z,928.52
2019-02-03T02:31:32.616Z,928.51
2019-02-03T02:32:40.668Z,928.54
2019-02-03T02:33:48.711Z,928.52
2019-02-03T02:34:56.765Z,928.55
2019-02-03T02:36:04.840Z,928.56
2019-02-03T02:37:12.873Z,928.50
2019-02-03T02:38:21.026Z,928.49
2019-02-03T02:39:28.987Z,928.48
2019-02-03T02:40:37.121Z,928.49
2019-02-03T02:41:45.073Z,928.42
2019-02-03T02:42:53.169Z,928.46
2019-02-03T02:44:01.189Z,928.44
2019-02-03T02:45:09.272Z,928.44
2019-02-03T02:46:17.406Z,928.40
2019-02-03T02:47:25.387Z,928.40
2019-02-03T02:48:33.441Z,928.32
2019-02-03T02:49:41.480Z,928.34
2019-02-03T02:50:49.611Z,928.35
2019-02-03T02:51:57.589Z,928.34
2019-02-03T02:53:05.726Z,928.32
2019-02-03T02:54:13.686Z,928.36
2019-02-03T02:55:21.747Z,928.46
2019-02-03T02:56:29.894Z,928.52
2019-02-03T02:57:37.857Z,928.53
2019-02-03T02:58:45.901Z,928.59
2019-02-03T02:59:53.956Z,928.64
2019-02-03T03:01:02.101Z,928.62
2019-02-03T03:02:10.100Z,928.64
2019-02-03T03:03:18.124Z,928.67
2019-02-03T03:04:26.172Z,928.66
2019-02-03T03:05:34.215Z,928.67
2019-02-03T03:06:42.374Z,928.64
2019-02-03T03:07:50.433Z,928.70
2019-02-03T03:08:58.381Z,928.73
2019-02-03T03:10:06.450Z,928.76
2019-02-03T03:11:14.602Z,928.80
2019-02-03T03:12:22.563Z,928.80
2019-02-03T03:13:30.628Z,928.82
2019-02-03T03:14:38.667Z,928.84
2019-02-03T03:15:46.766Z,928.85
2019-02-03T03:16:54.852Z,928.85
2019-02-03T03:18:02.849Z,928.80
2019-02-03T03:19:10.878Z,928.79
2019-02-03T03:20:18.936Z,928.77
2019-02-03T03:21:27.086Z,928.75
2019-02-03T03:22:35.045Z,928.75
2019-02-03T03:23:43.203Z,928.73
2019-02-03T03:24:51.147Z,928.75
2019-02-03T03:25:59.215Z,928.77
2019-02-03T03:27:07.365Z,928.78
2019-02-03T03:28:15.314Z,928.75
2019-02-03T03:29:23.382Z,928.80
2019-02-03T03:30:31.414Z,928.78
2019-02-03T03:31:39.561Z,928.79
2019-02-03T03:32:47.535Z,928.77
2019-02-03T03:33:55.591Z,928.77
2019-02-03T03:35:03.651Z,928.75
2019-02-03T03:36:11.690Z,928.76
2019-02-03T03:37:19.746Z,928.76
2019-02-03T03:38:31.921Z,928.77
2019-02-03T03:39:36.000Z,928.75
2019-02-03T03:40:43.918Z,928.74
2019-02-03T03:41:52.097Z,928.73
2019-02-03T03:43:00.020Z,928.76
2019-02-03T03:44:08.080Z,928.75
2019-02-03T03:45:16.135Z,928.79
2019-02-03T03:46:24.166Z,928.82
2019-02-03T03:47:32.229Z,928.82
2019-02-03T03:48:40.289Z,928.83
2019-02-03T03:49:48.347Z,928.91
2019-02-03T03:50:56.395Z,928.89
2019-02-03T03:52:04.494Z,928.91
2019-02-03T03:53:12.508Z,928.93
2019-02-03T03:54:20.572Z,928.95
2019-02-03T03:55:28.717Z,928.95
2019-02-03T03:56:36.769Z,928.99
2019-02-03T03:57:44.704Z,929.01
2019-02-03T03:58:52.781Z,929.04
2019-02-03T04:00:00.858Z,929.03
2019-02-03T04:01:08.872Z,929.04
2019-02-03T04:02:17.050Z,929.06
2019-02-03T04:03:24.988Z,929.08
2019-02-03T04:04:33.045Z,929.12
2019-02-03T04:05:41.096Z,929.10
2019-02-03T04:06:49.271Z,929.15
2019-02-03T04:07:57.244Z,929.20
2019-02-03T04:09:05.289Z,929.19
2019-02-03T04:10:13.325Z,929.26
2019-02-03T04:11:21.470Z,929.28
2019-02-03T04:12:29.529Z,929.28
2019-02-03T04:13:37.491Z,929.32
2019-02-03T04:14:45.540Z,929.34
2019-02-03T04:15:53.598Z,929.36
2019-02-03T04:17:01.745Z,929.39
2019-02-03T04:18:09.707Z,929.37
2019-02-03T04:19:17.779Z,929.39
2019-02-03T04:20:25.837Z,929.39
2019-02-03T04:21:33.887Z,929.42
2019-02-03T04:22:41.974Z,929.46
2019-02-03T04:23:49.979Z,929.43
2019-02-03T04:24:58.021Z,929.46
2019-02-03T04:26:06.087Z,929.51
2019-02-03T04:27:14.199Z,929.47
2019-02-03T04:28:22.179Z,929.49
2019-02-03T04:29:30.259Z,929.50
2019-02-03T04:30:38.290Z,929.49
2019-02-03T04:31:46.358Z,929.50
2019-02-03T04:32:54.481Z,929.54
2019-02-03T04:34:02.475Z,929.54
2019-02-03T04:35:10.504Z,929.56
2019-02-03T04:36:18.589Z,929.61
2019-02-03T04:37:26.719Z,929.61
2019-02-03T04:38:34.666Z,929.60
2019-02-03T04:39:42.741Z,929.65
2019-02-03T04:40:50.797Z,929.67
2019-02-03T04:41:58.856Z,929.68
2019-02-03T04:43:06.993Z,929.72
2019-02-03T04:44:14.958Z,929.75
2019-02-03T04:45:23.092Z,929.75
2019-02-03T04:46:31.101Z,929.72
2019-02-03T04:47:39.252Z,929.75
2019-02-03T04:48:47.173Z,929.76
2019-02-03T04:49:55.211Z,929.81
2019-02-03T04:51:03.271Z,929.83
2019-02-03T04:52:11.334Z,929.89
2019-02-03T04:53:19.483Z,929.85
2019-02-03T04:54:27.430Z,929.85
2019-02-03T04:55:35.488Z,929.87
2019-02-03T04:56:43.556Z,929.89
2019-02-03T04:57:51.702Z,929.87
2019-02-03T04:58:59.654Z,929.88
2019-02-03T05:00:07.733Z,929.92
2019-02-03T05:01:15.768Z,929.91
2019-02-03T05:02:23.838Z,929.95
2019-02-03T05:03:31.890Z,929.95
2019-02-03T05:04:39.940Z,929.96
2019-02-03T05:05:47.974Z,929.99
2019-02-03T05:06:56.036Z,929.99
2019-02-03T05:08:04.170Z,930.00
2019-02-03T05:09:12.151Z,930.02
2019-02-03T05:10:20.197Z,930.05
2019-02-03T05:11:28.259Z,930.07
2019-02-03T05:12:36.396Z,930.05
2019-02-03T05:13:44.363Z,930.10
2019-02-03T05:14:52.412Z,930.10
2019-02-03T05:16:00.636Z,930.14
2019-02-03T05:17:08.564Z,930.11
2019-02-03T05:18:17.394Z,930.10
2019-02-03T05:19:24.997Z,930.14
2019-02-03T05:20:33.278Z,930.15
2019-02-03T05:21:41.303Z,930.15
2019-02-03T05:22:48.803Z,930.14
2019-02-03T05:23:58.855Z,930.16
2019-02-03T05:25:05.460Z,930.22
2019-02-03T05:26:13.586Z,930.23
2019-02-03T05:27:21.638Z,930.23
2019-02-03T05:28:30.086Z,930.27
2019-02-03T05:29:37.737Z,930.29
2019-02-03T05:30:46.331Z,930.31
2019-02-03T05:31:54.291Z,930.31
2019-02-03T05:33:01.767Z,930.33
2019-02-03T05:34:09.346Z,930.35
2019-02-03T05:35:17.404Z,930.37
2019-02-03T05:36:25.443Z,930.41
2019-02-03T05:37:33.506Z,930.43
2019-02-03T05:38:41.645Z,930.44
2019-02-03T05:39:49.616Z,930.45
2019-02-03T05:40:57.692Z,930.49
2019-02-03T05:42:05.725Z,930.53
2019-02-03T05:43:13.765Z,930.55
2019-02-03T05:44:22.031Z,930.56
2019-02-03T05:45:30.265Z,930.62
2019-02-03T05:46:37.931Z,930.63
2019-02-03T05:47:46.128Z,930.60
2019-02-03T05:48:54.494Z,930.64
2019-02-03T05:50:02.108Z,930.70
2019-02-03T05:51:10.157Z,930.72
2019-02-03T05:52:18.240Z,930.72
2019-02-03T05:53:26.272Z,930.75
2019-02-03T05:54:34.319Z,930.78
2019-02-03T05:55:42.379Z,930.74
2019-02-03T05:56:50.456Z,930.79
2019-02-03T05:57:58.512Z,930.83
2019-02-03T05:59:06.672Z,930.86
2019-02-03T06:00:14.664Z,930.91
2019-02-03T06:01:27.931Z,930.90
2019-02-03T06:02:30.698Z,930.90
2019-02-03T06:03:38.875Z,930.96
2019-02-03T06:04:46.823Z,930.96
2019-02-03T06:05:54.892Z,931.00
2019-02-03T06:07:02.931Z,931.01
2019-02-03T06:08:10.969Z,931.00
2019-02-03T06:09:19.122Z,931.04
2019-02-03T06:10:27.102Z,931.04
2019-02-03T06:11:35.146Z,931.08
2019-02-03T06:12:43.210Z,931.09
2019-02-03T06:13:51.346Z,931.15
2019-02-03T06:14:59.305Z,931.16
2019-02-03T06:16:07.476Z,931.18
2019-02-03T06:17:15.415Z,931.18
2019-02-03T06:18:23.475Z,931.19
2019-02-03T06:19:31.631Z,931.25
2019-02-03T06:20:39.573Z,931.31
2019-02-03T06:21:47.629Z,931.30
2019-02-03T06:22:55.695Z,931.34
2019-02-03T06:24:04.036Z,931.34
2019-02-03T06:25:11.803Z,931.38
2019-02-03T06:26:19.853Z,931.39
2019-02-03T06:27:27.911Z,931.43
2019-02-03T06:28:35.960Z,931.46
2019-02-03T06:29:44.044Z,931.46
2019-02-03T06:30:52.071Z,931.47
2019-02-03T06:32:00.198Z,931.50
2019-02-03T06:33:08.174Z,931.51
2019-02-03T06:34:16.289Z,931.57
2019-02-03T06:35:24.307Z,931.58
2019-02-03T06:36:32.356Z,931.61
2019-02-03T06:37:40.416Z,931.67
2019-02-03T06:38:48.558Z,931.70
2019-02-03T06:39:56.609Z,931.69
2019-02-03T06:41:04.535Z,931.78
2019-02-03T06:42:14.400Z,931.79
2019-02-03T06:43:20.681Z,931.78
2019-02-03T06:44:28.791Z,931.84
2019-02-03T06:45:36.788Z,931.88
2019-02-03T06:46:44.897Z,931.90
2019-02-03T06:47:52.980Z,931.96
2019-02-03T06:49:00.929Z,931.96
2019-02-03T06:50:09.102Z,932.00
2019-02-03T06:51:17.041Z,931.98
2019-02-03T06:52:25.124Z,931.99
2019-02-03T06:53:33.171Z,932.02
2019-02-03T06:54:41.319Z,932.08
2019-02-03T06:55:49.268Z,932.08
2019-02-03T06:56:57.352Z,932.12
2019-02-03T06:58:05.366Z,932.12
2019-02-03T06:59:13.464Z,932.16
2019-02-03T07:00:21.595Z,932.17
2019-02-03T07:01:29.546Z,932.22
2019-02-03T07:02:37.679Z,932.22
2019-02-03T07:03:45.629Z,932.23
2019-02-03T07:04:53.771Z,932.28
2019-02-03T07:06:01.754Z,932.29
2019-02-03T07:07:09.813Z,932.33
2019-02-03T07:08:17.864Z,932.38
2019-02-03T07:09:25.906Z,932.44
2019-02-03T07:10:34.016Z,932.44
2019-02-03T07:11:42.023Z,932.47
2019-02-03T07:12:50.067Z,932.50
2019-02-03T07:13:58.176Z,932.51
2019-02-03T07:15:06.284Z,932.52
2019-02-03T07:16:14.215Z,932.52
2019-02-03T07:17:22.291Z,932.55
2019-02-03T07:18:30.355Z,932.57
2019-02-03T07:19:38.399Z,932.58
2019-02-03T07:20:46.544Z,932.60
2019-02-03T07:21:54.507Z,932.59
2019-02-03T07:23:02.705Z,932.60
2019-02-03T07:24:10.607Z,932.63
2019-02-03T07:25:18.749Z,932.67
2019-02-03T07:26:26.687Z,932.72
2019-02-03T07:27:34.769Z,932.77
2019-02-03T07:28:42.823Z,932.77
2019-02-03T07:29:50.875Z,932.81
2019-02-03T07:30:58.921Z,932.87
2019-02-03T07:32:06.986Z,932.92
2019-02-03T07:33:15.410Z,932.91
2019-02-03T07:34:23.329Z,932.96
2019-02-03T07:35:31.250Z,932.94
2019-02-03T07:36:39.184Z,932.96
2019-02-03T07:37:47.261Z,932.95
2019-02-03T07:38:55.285Z,932.99
2019-02-03T07:40:11.939Z,933.00
2019-02-03T07:41:11.889Z,933.05
2019-02-03T07:42:19.629Z,933.07
2019-02-03T07:43:27.523Z,933.10
2019-02-03T07:44:36.195Z,933.15
2019-02-03T07:45:43.687Z,933.16
2019-02-03T07:46:51.696Z,933.18
2019-02-03T07:47:59.732Z,933.20
2019-02-03T07:49:07.871Z,933.17
2019-02-03T07:50:15.966Z,933.25
2019-02-03T07:51:23.889Z,933.26
2019-02-03T07:52:31.949Z,933.24
2019-02-03T07:53:40.078Z,933.29
2019-02-03T07:54:48.049Z,933.30
2019-02-03T07:55:56.164Z,933.31
2019-02-03T07:57:04.149Z,933.33
2019-02-03T07:58:12.604Z,933.33
2019-02-03T07:59:20.276Z,933.36
2019-02-03T08:00:28.410Z,933.35
2019-02-03T08:01:36.380Z,933.42
2019-02-03T08:02:44.412Z,933.42
2019-02-03T08:03:52.601Z,933.46
2019-02-03T08:05:00.751Z,933.50
2019-02-03T08:06:08.677Z,933.52
2019-02-03T08:07:16.650Z,933.54
2019-02-03T08:08:24.686Z,933.59
2019-02-03T08:09:32.739Z,933.56
2019-02-03T08:10:40.886Z,933.64
2019-02-03T08:11:48.863Z,933.66
2019-02-03T08:12:56.920Z,933.67
2019-02-03T08:14:04.962Z,933.72
2019-02-03T08:15:13.033Z,933.73
2019-02-03T08:16:22.050Z,933.72
2019-02-03T08:17:29.211Z,933.74
2019-02-03T08:18:37.356Z,933.70
2019-02-03T08:19:45.367Z,933.78
2019-02-03T08:20:53.375Z,933.76
2019-02-03T08:22:01.325Z,933.84
2019-02-03T08:23:09.367Z,933.85
2019-02-03T08:24:17.455Z,933.89
2019-02-03T08:25:26.928Z,933.92
2019-02-03T08:26:34.535Z,933.90
2019-02-03T08:27:42.163Z,933.95
2019-02-03T08:28:50.132Z,933.98
2019-02-03T08:29:57.723Z,933.98
2019-02-03T08:31:05.872Z,934.04
2019-02-03T08:32:13.803Z,934.04
2019-02-03T08:33:21.892Z,934.09
2019-02-03T08:34:30.183Z,934.09
2019-02-03T08:35:38.491Z,934.09
2019-02-03T08:36:46.489Z,934.14
2019-02-03T08:37:54.143Z,934.19
2019-02-03T08:39:02.146Z,934.21
2019-02-03T08:40:10.188Z,934.25
2019-02-03T08:41:18.305Z,934.29
2019-02-03T08:42:26.288Z,934.31
2019-02-03T08:43:34.350Z,934.32
2019-02-03T08:44:42.415Z,934.35
2019-02-03T08:45:50.489Z,934.41
2019-02-03T08:46:58.626Z,934.40
2019-02-03T08:48:06.816Z,934.43
2019-02-03T08:49:15.208Z,934.46
2019-02-03T08:50:23.261Z,934.49
2019-02-03T08:51:32.309Z,934.47
2019-02-03T08:52:38.783Z,934.50
2019-02-03T08:53:46.848Z,934.58
2019-02-03T08:54:58.068Z,934.54
2019-02-03T08:56:02.956Z,934.61
2019-02-03T08:57:11.102Z,934.66
2019-02-03T08:58:19.059Z,934.69
2019-02-03T08:59:27.107Z,934.68
2019-02-03T09:00:35.167Z,934.72
2019-02-03T09:01:43.315Z,934.71
2019-02-03T09:02:51.629Z,934.76
2019-02-03T09:03:59.899Z,934.80
2019-02-03T09:05:07.962Z,934.75
2019-02-03T09:06:15.438Z,934.82
2019-02-03T09:07:23.589Z,934.85
2019-02-03T09:08:31.554Z,934.83
2019-02-03T09:09:39.590Z,934.87
2019-02-03T09:10:48.765Z,934.92
2019-02-03T09:11:55.762Z,934.90
2019-02-03T09:13:04.254Z,934.96
2019-02-03T09:14:11.823Z,934.98
2019-02-03T09:15:19.859Z,934.98
2019-02-03T09:16:27.922Z,935.00
2019-02-03T09:17:36.074Z,935.02
2019-02-03T09:18:44.433Z,935.10
2019-02-03T09:19:52.092Z,935.12
2019-02-03T09:21:00.140Z,935.17
2019-02-03T09:22:08.286Z,935.19
2019-02-03T09:23:16.244Z,935.18
2019-02-03T09:24:24.954Z,935.24
2019-02-03T09:25:32.933Z,935.24
2019-02-03T09:26:40.816Z,935.27
2019-02-03T09:27:48.457Z,935.30
2019-02-03T09:28:56.525Z,935.32
2019-02-03T09:30:04.579Z,935.34
2019-02-03T09:31:12.893Z,935.36
2019-02-03T09:32:20.957Z,935.36
2019-02-03T09:33:28.732Z,935.41
2019-02-03T09:34:36.791Z,935.42
2019-02-03T09:35:44.832Z,935.42
2019-02-03T09:36:53.087Z,935.48
2019-02-03T09:38:01.463Z,935.52
2019-02-03T09:39:08.995Z,935.47
2019-02-03T09:40:17.061Z,935.50
2019-02-03T09:41:25.117Z,935.51
2019-02-03T09:42:33.312Z,935.56
2019-02-03T09:43:41.793Z,935.56
2019-02-03T09:44:49.278Z,935.64
2019-02-03T09:45:57.337Z,935.63
2019-02-03T09:47:05.426Z,935.67
2019-02-03T09:48:13.449Z,935.79
2019-02-03T09:49:21.479Z,935.77
2019-02-03T09:50:29.554Z,935.80
2019-02-03T09:51:37.592Z,935.79
2019-02-03T09:52:45.744Z,935.77
2019-02-03T09:53:53.704Z,935.82
2019-02-03T09:55:01.764Z,935.82
2019-02-03T09:56:09.819Z,935.86
2019-02-03T09:57:17.974Z,935.88
2019-02-03T09:58:25.930Z,935.92
2019-02-03T09:59:33.962Z,935.93
2019-02-03T10:00:42.040Z,935.93
2019-02-03T10:01:50.078Z,935.98
2019-02-03T10:02:58.212Z,936.01
2019-02-03T10:04:06.242Z,936.05
2019-02-03T10:05:14.237Z,936.03
2019-02-03T10:06:22.321Z,936.14
2019-02-03T10:07:30.469Z,936.12
2019-02-03T10:08:40.516Z,936.16
2019-02-03T10:09:46.474Z,936.19
2019-02-03T10:10:54.518Z,936.21
2019-02-03T10:12:02.605Z,936.23
2019-02-03T10:13:10.760Z,936.21
2019-02-03T10:14:18.704Z,936.25
2019-02-03T10:15:26.782Z,936.28
2019-02-03T10:16:34.815Z,936.30
2019-02-03T10:17:43.014Z,936.30
2019-02-03T10:18:50.941Z,936.32
2019-02-03T10:19:58.993Z,936.32
2019-02-03T10:21:07.047Z,936.34
2019-02-03T10:22:15.085Z,936.36
2019-02-03T10:23:23.254Z,936.39
2019-02-03T10:24:41.653Z,936.42
2019-02-03T10:25:39.265Z,936.44
2019-02-03T10:26:47.321Z,936.50
2019-02-03T10:27:55.467Z,936.53
2019-02-03T10:29:03.428Z,936.56
2019-02-03T10:30:11.497Z,936.54
2019-02-03T10:31:19.533Z,936.55
2019-02-03T10:32:30.197Z,936.55
2019-02-03T10:33:35.687Z,936.63
2019-02-03T10:34:43.681Z,936.60
2019-02-03T10:35:51.750Z,936.64
2019-02-03T10:36:59.795Z,936.64
2019-02-03T10:38:07.957Z,936.64
2019-02-03T10:39:15.998Z,936.67
2019-02-03T10:40:23.949Z,936.67
2019-02-03T10:41:32.004Z,936.70
2019-02-03T10:42:40.079Z,936.72
2019-02-03T10:43:48.278Z,936.73
2019-02-03T10:44:56.205Z,936.73
2019-02-03T10:46:04.251Z,936.71
2019-02-03T10:47:12.286Z,936.71
2019-02-03T10:48:20.393Z,936.74
2019-02-03T10:49:28.387Z,936.76
2019-02-03T10:50:36.509Z,936.75
2019-02-03T10:51:44.493Z,936.77
2019-02-03T10:52:52.572Z,936.83
2019-02-03T10:54:00.706Z,936.78
2019-02-03T10:55:08.762Z,936.77
2019-02-03T10:56:16.720Z,936.77
2019-02-03T10:57:24.790Z,936.85
2019-02-03T10:58:32.880Z,936.79
2019-02-03T10:59:40.882Z,936.82
2019-02-03T11:00:48.938Z,936.82
2019-02-03T11:01:57.014Z,936.83
2019-02-03T11:03:05.044Z,936.83
2019-02-03T11:04:13.191Z,936.86
2019-02-03T11:05:21.154Z,936.84
2019-02-03T11:06:29.217Z,936.87
2019-02-03T11:07:37.276Z,936.88
2019-02-03T11:08:45.416Z,936.97
2019-02-03T11:09:53.367Z,936.97
2019-02-03T11:11:01.524Z,936.96
2019-02-03T11:12:09.517Z,936.94
2019-02-03T11:13:17.550Z,936.98
2019-02-03T11:14:25.702Z,936.98
2019-02-03T11:15:33.637Z,937.00
2019-02-03T11:16:41.687Z,937.02
2019-02-03T11:17:49.747Z,937.02
2019-02-03T11:18:57.896Z,937.05
2019-02-03T11:20:05.878Z,937.09
2019-02-03T11:21:13.900Z,937.09
2019-02-03T11:22:21.969Z,937.09
2019-02-03T11:23:30.003Z,937.22
2019-02-03T11:24:38.176Z,937.20
2019-02-03T11:25:46.186Z,937.22
2019-02-03T11:26:54.269Z,937.23
2019-02-03T11:28:02.254Z,937.30
2019-02-03T11:29:10.375Z,937.26
2019-02-03T11:30:18.347Z,937.29
2019-02-03T11:31:26.407Z,937.26
2019-02-03T11:32:34.461Z,937.33
2019-02-03T11:33:42.492Z,937.38
2019-02-03T11:34:50.573Z,937.34
2019-02-03T11:35:58.607Z,937.35
2019-02-03T11:37:06.669Z,937.35
2019-02-03T11:38:14.721Z,937.39
2019-02-03T11:39:22.885Z,937.40
2019-02-03T11:40:30.845Z,937.39
2019-02-03T11:41:48.519Z,937.43
2019-02-03T11:42:47.042Z,937.44
2019-02-03T11:43:54.991Z,937.49
2019-02-03T11:45:03.057Z,937.47
2019-02-03T11:46:11.092Z,937.52
2019-02-03T11:47:19.169Z,937.45
2019-02-03T11:48:27.210Z,937.49
2019-02-03T11:49:35.378Z,937.50
2019-02-03T11:50:43.324Z,937.55
2019-02-03T11:51:51.378Z,937.53
2019-02-03T11:52:59.446Z,937.55
2019-02-03T11:54:07.588Z,937.60
2019-02-03T11:55:15.553Z,937.64
2019-02-03T11:56:23.597Z,937.66
2019-02-03T11:57:31.747Z,937.59
2019-02-03T11:58:39.719Z,937.68
2019-02-03T11:59:47.867Z,937.63
2019-02-03T12:00:55.819Z,937.62
2019-02-03T12:02:03.851Z,937.64
2019-02-03T12:03:11.931Z,937.69
2019-02-03T12:04:20.081Z,937.71
2019-02-03T12:05:28.049Z,937.75
2019-02-03T12:06:36.082Z,937.80
2019-02-03T12:07:44.150Z,937.78
2019-02-03T12:08:52.183Z,937.79
2019-02-03T12:10:00.365Z,937.83
2019-02-03T12:11:08.307Z,937.83
2019-02-03T12:12:16.356Z,937.83
2019-02-03T12:13:24.438Z,937.82
2019-02-03T12:14:32.590Z,937.87
2019-02-03T12:15:40.520Z,937.85
2019-02-03T12:16:48.577Z,937.87
2019-02-03T12:17:56.634Z,937.89
2019-02-03T12:19:04.680Z,937.88
2019-02-03T12:20:12.830Z,937.87
2019-02-03T12:21:20.784Z,937.87
2019-02-03T12:22:28.846Z,937.94
2019-02-03T12:23:36.880Z,937.92
2019-02-03T12:24:45.012Z,938.01
2019-02-03T12:25:53.009Z,938.00
2019-02-03T12:27:01.067Z,938.03
2019-02-03T12:28:09.217Z,938.04
2019-02-03T12:29:17.170Z,938.09
2019-02-03T12:30:25.320Z,938.15
2019-02-03T12:31:33.283Z,938.12
2019-02-03T12:32:41.338Z,938.13
2019-02-03T12:33:49.398Z,938.14
2019-02-03T12:34:57.501Z,938.15
2019-02-03T12:36:05.494Z,938.14
2019-02-03T12:37:13.558Z,938.23
2019-02-03T12:38:21.617Z,938.20
2019-02-03T12:39:29.673Z,938.26
2019-02-03T12:40:37.906Z,938.26
2019-02-03T12:41:47.945Z,938.28
2019-02-03T12:42:53.799Z,938.31
2019-02-03T12:44:01.977Z,938.32
2019-02-03T12:45:09.983Z,938.33
2019-02-03T12:46:17.983Z,938.35
2019-02-03T12:47:26.044Z,938.34
2019-02-03T12:48:34.115Z,938.38
2019-02-03T12:49:42.149Z,938.39
2019-02-03T12:50:50.296Z,938.41
2019-02-03T12:51:58.266Z,938.42
2019-02-03T12:53:06.310Z,938.44
2019-02-03T12:54:14.359Z,938.50
2019-02-03T12:55:22.509Z,938.51
2019-02-03T12:56:30.486Z,938.47
2019-02-03T12:57:38.533Z,938.52
2019-02-03T12:58:46.579Z,938.50
2019-02-03T12:59:54.724Z,938.53
2019-02-03T13:01:02.786Z,938.59
2019-02-03T13:02:10.790Z,938.47
2019-02-03T13:03:18.798Z,938.58
2019-02-03T13:04:26.852Z,938.53
2019-02-03T13:05:34.997Z,938.57
2019-02-03T13:06:42.966Z,938.64
2019-02-03T13:07:51.017Z,938.64
2019-02-03T13:08:59.084Z,938.69
2019-02-03T13:10:16.281Z,938.68
2019-02-03T13:11:15.287Z,938.71
2019-02-03T13:12:24.976Z,938.72
2019-02-03T13:13:31.295Z,938.76
2019-02-03T13:14:39.352Z,938.75
2019-02-03T13:15:47.539Z,938.81
2019-02-03T13:16:55.455Z,938.80
2019-02-03T13:18:03.503Z,938.74
2019-02-03T13:19:11.580Z,938.86
2019-02-03T13:20:19.646Z,938.82
2019-02-03T13:21:27.766Z,938.88
2019-02-03T13:22:35.726Z,938.91
2019-02-03T13:23:45.126Z,938.92
2019-02-03T13:24:51.837Z,938.92
2019-02-03T13:25:59.953Z,938.96
2019-02-03T13:27:07.949Z,938.95
2019-02-03T13:28:15.989Z,939.00
2019-02-03T13:29:24.062Z,939.01
2019-02-03T13:30:32.113Z,939.03
2019-02-03T13:31:40.276Z,939.04
2019-02-03T13:32:48.204Z,939.05
2019-02-03T13:33:58.914Z,939.12
2019-02-03T13:35:04.308Z,939.13
2019-02-03T13:36:12.475Z,939.12
2019-02-03T13:37:20.443Z,939.12
2019-02-03T13:38:28.479Z,939.19
2019-02-03T13:39:36.555Z,939.20
2019-02-03T13:40:44.589Z,939.26
2019-02-03T13:41:52.639Z,939.29
2019-02-03T13:43:00.706Z,939.32
2019-02-03T13:44:08.751Z,939.34
2019-02-03T13:45:20.687Z,939.31
2019-02-03T13:46:24.950Z,939.37
2019-02-03T13:47:33.040Z,939.39
2019-02-03T13:48:40.986Z,939.49
2019-02-03T13:49:48.999Z,939.53
2019-02-03T13:50:57.077Z,939.48
2019-02-03T13:52:05.143Z,939.44
2019-02-03T13:53:13.185Z,939.53
2019-02-03T13:54:21.228Z,939.55
2019-02-03T13:55:29.275Z,939.60
2019-02-03T13:56:37.432Z,939.59
2019-02-03T13:57:45.412Z,939.61
2019-02-03T13:58:53.458Z,939.68
2019-02-03T14:00:01.509Z,939.66
2019-02-03T14:01:09.651Z,939.71
2019-02-03T14:02:17.597Z,939.75
2019-02-03T14:03:25.773Z,939.76
2019-02-03T14:04:33.702Z,939.77
2019-02-03T14:05:41.777Z,939.87
2019-02-03T14:06:49.916Z,939.88
2019-02-03T14:07:57.876Z,939.86
2019-02-03T14:09:05.934Z,939.93